Startpagina
METAR-TAF:

METAR-TAF

Vliegvelden :

Internationale luchthaven Koning Abdoel Aziz

Djedda, Saoedi-Arabië

breedte: 21-42N, lengte: 039-11E, hoogte: 15 m

Actueel weer

Dit bericht is 54 minuten geleden gemaakt, om 23:00 UTC
Wind 6 kt uit het noordwesten
Temperatuur 28°C
Vochtigheid 48%
Druk 1011 hPa
Zicht 10 km of meer
Weinig wolken op 4000 ft

METAR: OEJN 242300Z 32006KT 9999 FEW040 28/16 Q1011 NOSIG

Tijdstip: 02:54 (23:54 UTC)

Verwachting

Dit bericht is 54 minuten geleden gemaakt, om 23:00 UTC
Verwachting geldig van 25 om 00 UTC tot 26 om 06 UTC
Wind 3 kt uit variabele richting
Zicht 10 km of meer
Weinig wolken op 4000 ft
Wijzigt naar
van 25 om 06 UTC tot 25 om 08 UTC
Wind 15 kt uit het westzuidwesten

TAF: OEJN 242300Z 2500/2606 VRB03KT 9999 FEW040 BECMG 2506/2508 24015KT

Waarnemingen en weersverwachtingen van meer dan 4000 vliegvelden (METAR en TAF).

De beschikbare stations zijn de gele en rode punten op de kaart.

Ga met uw muis naar het station om de naam te zien.

Klik dan om waarnemingen en weersverwachtingen te zien.

kaart wijzigen: klik op de groene knoppen met een zwart kruis om in te zoomen, op de groene knop met een streepje om uit te zoomen of op de groene pijlen voor aangrenzende kaarten.


METAR-TAF: